Time;durP1;ratioP1;P1;durP2;ratioP2;P2;SDS_P1;SDS_P2;PMS_P1;PMS_P2;Temp;Humidity;BMP_temperature;BMP_pressure;BME280_temperature;BME280_humidity;BME280_pressure;Samples;Min_cycle;Max_cycle;Signal;HPM_P1;HPM_P2
2021/12/04 00:00:07;;;;;;;80.75;36.55;;;6.00;99.90;;;;;;5050785;27;20050;-73
2021/12/04 00:02:33;;;;;;;80.20;37.75;;;6.00;99.90;;;;;;5050783;28;20025;-73
2021/12/04 00:05:00;;;;;;;81.82;36.67;;;6.00;99.90;;;;;;5050617;27;20024;-73
2021/12/04 00:07:28;;;;;;;83.28;37.33;;;6.00;99.90;;;;;;5050740;28;20021;-74
2021/12/04 00:09:58;;;;;;;83.13;37.40;;;6.00;99.90;;;;;;5050549;28;20043;-73
2021/12/04 00:12:24;;;;;;;79.18;37.50;;;6.00;99.90;;;;;;5050559;28;20489;-73
2021/12/04 00:14:49;;;;;;;79.80;36.95;;;6.00;99.90;;;;;;5050592;28;20161;-73
2021/12/04 00:17:15;;;;;;;88.30;37.90;;;6.00;99.90;;;;;;5050479;27;20021;-73
2021/12/04 00:19:41;;;;;;;78.28;36.00;;;6.00;99.90;;;;;;5050486;27;20069;-73
2021/12/04 00:22:06;;;;;;;79.80;37.28;;;6.00;99.90;;;;;;5050452;27;20029;-73
2021/12/04 00:24:32;;;;;;;91.10;37.58;;;6.00;99.90;;;;;;5049996;27;20049;-73
2021/12/04 00:26:58;;;;;;;88.22;37.75;;;6.00;99.90;;;;;;5050336;28;20025;-74
2021/12/04 00:29:24;;;;;;;85.53;38.10;;;6.00;99.90;;;;;;5050290;28;20067;-74
2021/12/04 00:31:53;;;;;;;88.55;38.33;;;6.00;99.90;;;;;;5050482;27;20036;-73
2021/12/04 00:34:22;;;;;;;88.78;36.88;;;6.00;99.90;;;;;;5050340;28;20605;-73
2021/12/04 00:50:16;;;;;;;97.90;39.38;;;6.00;99.90;;;;;;5050256;28;20036;-73
2021/12/04 00:52:41;;;;;;;104.65;40.92;;;6.00;99.90;;;;;;5049927;28;20709;-74
2021/12/04 00:55:07;;;;;;;103.15;41.40;;;6.00;99.90;;;;;;5049993;27;20029;-74
2021/12/04 00:57:33;;;;;;;100.80;41.08;;;6.00;99.90;;;;;;5049104;28;20021;-73
2021/12/04 00:59:59;;;;;;;97.50;40.15;;;6.10;99.90;;;;;;5048364;28;20450;-74
2021/12/04 01:02:25;;;;;;;100.65;39.58;;;6.10;99.90;;;;;;5049927;27;20069;-73
2021/12/04 01:04:51;;;;;;;105.05;41.33;;;6.10;99.90;;;;;;5049676;27;20037;-74
2021/12/04 01:07:17;;;;;;;113.45;40.65;;;6.10;99.90;;;;;;5049766;28;20037;-74
2021/12/04 01:09:44;;;;;;;106.13;41.70;;;6.10;99.90;;;;;;5049747;28;20021;-74
2021/12/04 01:12:10;;;;;;;107.85;40.90;;;6.10;99.90;;;;;;5049640;28;20020;-73
2021/12/04 01:14:37;;;;;;;108.93;41.63;;;6.10;99.90;;;;;;5049525;27;20025;-73
2021/12/04 01:17:03;;;;;;;111.05;40.83;;;6.10;99.90;;;;;;5049450;28;20029;-73
2021/12/04 01:19:29;;;;;;;106.18;41.38;;;6.10;99.90;;;;;;5049506;28;20536;-74
2021/12/04 01:21:55;;;;;;;115.18;40.67;;;6.10;99.90;;;;;;5049514;28;20033;-73
2021/12/04 01:24:22;;;;;;;104.68;41.17;;;6.10;99.90;;;;;;5049112;27;20053;-74
2021/12/04 01:26:48;;;;;;;110.15;40.92;;;6.10;99.90;;;;;;5049285;28;20746;-74
2021/12/04 01:29:15;;;;;;;112.30;41.80;;;6.10;99.90;;;;;;5049248;28;20500;-74
2021/12/04 01:31:41;;;;;;;120.88;43.80;;;6.10;99.90;;;;;;5048119;28;20025;-74
2021/12/04 01:34:06;;;;;;;118.22;44.08;;;6.10;99.90;;;;;;5049429;28;20025;-74
2021/12/04 01:36:32;;;;;;;122.55;42.58;;;6.10;99.90;;;;;;5049166;27;20033;-74
2021/12/04 01:38:58;;;;;;;118.72;42.83;;;6.10;99.90;;;;;;5049528;27;20021;-74
2021/12/04 01:41:24;;;;;;;114.70;41.45;;;6.10;99.90;;;;;;5049249;28;20025;-74
2021/12/04 01:43:50;;;;;;;122.03;42.22;;;6.10;99.90;;;;;;5048955;27;20033;-73
2021/12/04 01:46:15;;;;;;;124.47;43.72;;;6.00;99.90;;;;;;5049168;27;20142;-74
2021/12/04 01:48:41;;;;;;;121.63;44.15;;;6.10;99.90;;;;;;5046380;27;20033;-74
2021/12/04 01:51:06;;;;;;;122.07;41.92;;;6.00;99.90;;;;;;5029125;28;20036;-73
2021/12/04 01:53:32;;;;;;;120.32;42.90;;;6.00;99.90;;;;;;5027952;28;20034;-74
2021/12/04 01:55:59;;;;;;;127.75;42.67;;;6.10;99.90;;;;;;5029144;28;20026;-74
2021/12/04 01:58:26;;;;;;;124.10;41.95;;;6.10;99.90;;;;;;5029036;28;20021;-74
2021/12/04 02:00:52;;;;;;;126.13;42.42;;;6.10;99.90;;;;;;5029144;28;20048;-74
2021/12/04 02:03:19;;;;;;;125.68;41.47;;;6.10;99.90;;;;;;5028888;28;20494;-74
2021/12/04 02:05:46;;;;;;;125.20;43.47;;;6.10;99.90;;;;;;5028997;28;20026;-74
2021/12/04 02:08:14;;;;;;;124.07;42.42;;;6.10;99.90;;;;;;5028860;28;20462;-74
2021/12/04 02:10:40;;;;;;;121.25;40.95;;;6.10;99.90;;;;;;5028665;28;20030;-74
2021/12/04 02:13:06;;;;;;;125.03;40.95;;;6.20;99.90;;;;;;5028779;28;20394;-74
2021/12/04 02:15:32;;;;;;;124.43;40.88;;;6.10;99.90;;;;;;5028841;28;20028;-74
2021/12/04 02:17:58;;;;;;;130.68;40.97;;;6.20;99.90;;;;;;5028619;28;20022;-73
2021/12/04 02:20:27;;;;;;;128.73;39.58;;;6.20;99.90;;;;;;5028793;28;20018;-74
2021/12/04 02:22:54;;;;;;;131.73;40.35;;;6.20;99.90;;;;;;5028717;28;20022;-74
2021/12/04 02:25:20;;;;;;;131.77;40.88;;;6.20;99.90;;;;;;5028926;28;20471;-73
2021/12/04 02:27:47;;;;;;;134.75;43.30;;;6.20;99.90;;;;;;5027316;28;20104;-73
2021/12/04 02:30:20;;;;;;;132.23;41.35;;;6.20;99.90;;;;;;5028785;28;20093;-73
2021/12/04 02:32:46;;;;;;;129.90;41.35;;;6.20;99.90;;;;;;5028917;28;20091;-73
2021/12/04 02:35:12;;;;;;;120.88;40.50;;;6.20;99.90;;;;;;5028609;28;20061;-73
2021/12/04 02:37:39;;;;;;;130.00;42.33;;;6.20;99.90;;;;;;5027239;28;20026;-73
2021/12/04 02:40:08;;;;;;;123.90;39.72;;;6.20;99.90;;;;;;5028488;28;20018;-73
2021/12/04 02:42:33;;;;;;;137.25;41.90;;;6.20;99.90;;;;;;5028420;28;20466;-73
2021/12/04 02:45:01;;;;;;;146.98;41.65;;;6.20;99.90;;;;;;5028404;28;20041;-73
2021/12/04 02:47:28;;;;;;;136.98;40.58;;;6.20;99.90;;;;;;5028447;28;20046;-73
2021/12/04 02:49:55;;;;;;;134.13;39.88;;;6.20;99.90;;;;;;5028382;28;20089;-73
2021/12/04 02:52:22;;;;;;;140.82;41.88;;;6.20;99.90;;;;;;5028311;28;20021;-73
2021/12/04 02:54:50;;;;;;;132.05;41.70;;;6.20;99.90;;;;;;5027986;28;20032;-73
2021/12/04 02:57:18;;;;;;;131.13;40.83;;;6.20;99.90;;;;;;5028183;28;20021;-73
2021/12/04 02:59:44;;;;;;;126.57;39.10;;;6.20;99.90;;;;;;5028194;28;20022;-73
2021/12/04 03:02:21;;;;;;;118.45;39.03;;;6.20;99.90;;;;;;5028221;28;20022;-73
2021/12/04 03:04:55;;;;;;;123.82;38.35;;;6.20;99.90;;;;;;5028257;28;20038;-73
2021/12/04 03:07:22;;;;;;;119.82;36.83;;;6.20;99.90;;;;;;5028197;28;20105;-73
2021/12/04 03:09:48;;;;;;;118.57;37.45;;;6.30;99.90;;;;;;5028049;28;20385;-73
2021/12/04 03:12:15;;;;;;;113.90;36.65;;;6.30;99.90;;;;;;5028203;28;20022;-73
2021/12/04 03:14:42;;;;;;;117.47;36.83;;;6.30;99.90;;;;;;5027971;28;20086;-73
2021/12/04 03:17:08;;;;;;;120.90;36.13;;;6.30;99.90;;;;;;5027988;28;20508;-73
2021/12/04 03:19:34;;;;;;;120.60;37.53;;;6.30;99.90;;;;;;5028125;28;20021;-73
2021/12/04 03:22:02;;;;;;;113.85;36.25;;;6.30;99.90;;;;;;5030004;28;20028;-73
2021/12/04 03:24:29;;;;;;;111.20;36.72;;;6.30;99.90;;;;;;5031118;28;20057;-73
2021/12/04 03:26:55;;;;;;;125.43;38.55;;;6.30;99.90;;;;;;5031331;28;20082;-73
2021/12/04 03:29:24;;;;;;;104.50;36.83;;;6.30;99.90;;;;;;5031414;28;20558;-73
2021/12/04 03:32:18;;;;;;;118.47;37.47;;;6.30;99.90;;;;;;5031443;28;20022;-72
2021/12/04 03:42:59;;;;;;;123.93;36.03;;;6.20;99.90;;;;;;5031415;28;20113;-73
2021/12/04 03:45:24;;;;;;;126.28;37.38;;;6.30;99.90;;;;;;5030948;28;20040;-73
2021/12/04 03:47:52;;;;;;;111.90;36.90;;;6.30;99.90;;;;;;5031416;28;20101;-73
2021/12/04 03:50:18;;;;;;;113.53;35.80;;;6.30;99.90;;;;;;5031183;28;20028;-72
2021/12/04 03:52:44;;;;;;;109.95;35.90;;;6.30;99.90;;;;;;5031044;28;20022;-73
2021/12/04 03:55:10;;;;;;;128.02;37.42;;;6.30;99.90;;;;;;5031027;28;20033;-72
2021/12/04 03:57:44;;;;;;;110.82;35.50;;;6.30;99.90;;;;;;5030902;28;20051;-73
2021/12/04 04:00:13;;;;;;;110.47;34.55;;;6.30;99.90;;;;;;5031068;28;20029;-74
2021/12/04 04:02:39;;;;;;;111.03;34.63;;;6.30;99.90;;;;;;5029563;28;20049;-74
2021/12/04 04:05:06;;;;;;;107.30;35.08;;;6.30;99.90;;;;;;5030769;28;20423;-73
2021/12/04 04:07:31;;;;;;;115.05;35.88;;;6.30;99.90;;;;;;5030704;28;20037;-73
2021/12/04 04:09:57;;;;;;;106.72;33.72;;;6.20;99.90;;;;;;5030695;28;20026;-73
2021/12/04 04:12:22;;;;;;;110.18;33.72;;;6.30;99.90;;;;;;5030773;27;20022;-73
2021/12/04 04:14:48;;;;;;;109.03;34.38;;;6.30;99.90;;;;;;5030688;27;20082;-73
2021/12/04 04:17:14;;;;;;;120.90;34.13;;;6.30;99.90;;;;;;5030671;28;20671;-73
2021/12/04 04:19:39;;;;;;;110.38;33.03;;;6.30;99.90;;;;;;5030531;28;20025;-73
2021/12/04 04:22:05;;;;;;;109.97;34.25;;;6.30;99.90;;;;;;5029151;27;20025;-74
2021/12/04 04:24:34;;;;;;;107.68;33.92;;;6.30;99.90;;;;;;5030082;28;20061;-74
2021/12/04 04:27:00;;;;;;;104.97;33.75;;;6.30;99.90;;;;;;5030544;28;20031;-74
2021/12/04 04:29:26;;;;;;;108.35;32.28;;;6.30;99.90;;;;;;5030357;28;20041;-74
2021/12/04 04:31:54;;;;;;;99.70;32.15;;;6.20;99.90;;;;;;5030246;28;20022;-74
2021/12/04 04:34:28;;;;;;;103.28;32.20;;;6.30;99.90;;;;;;5030375;28;20025;-74
2021/12/04 05:12:12;;;;;;;111.00;34.30;;;6.30;99.90;;;;;;5029957;28;20036;-73
2021/12/04 05:14:41;;;;;;;103.55;34.20;;;6.30;99.90;;;;;;5028485;27;20032;-73
2021/12/04 05:17:10;;;;;;;104.55;32.00;;;6.30;99.90;;;;;;5030130;28;20030;-73
2021/12/04 05:22:06;;;;;;;105.60;33.88;;;6.30;99.90;;;;;;5029565;28;20489;-73
2021/12/04 05:24:32;;;;;;;100.53;33.17;;;6.30;99.90;;;;;;5029378;28;20536;-73
2021/12/04 05:26:58;;;;;;;106.57;32.72;;;6.30;99.90;;;;;;5029579;28;20029;-73
2021/12/04 05:29:24;;;;;;;104.57;33.45;;;6.40;99.90;;;;;;5029582;28;20034;-73
2021/12/04 05:31:49;;;;;;;108.90;34.20;;;6.30;99.90;;;;;;5029490;28;20097;-72
2021/12/04 05:34:16;;;;;;;109.93;33.80;;;6.40;99.90;;;;;;5029557;28;20037;-73
2021/12/04 05:36:41;;;;;;;108.45;34.25;;;6.30;99.90;;;;;;5029349;28;20535;-73
2021/12/04 05:39:07;;;;;;;115.28;35.10;;;6.30;99.90;;;;;;5029284;28;20022;-73
2021/12/04 05:41:33;;;;;;;110.35;33.25;;;6.30;99.90;;;;;;5029268;28;20029;-75
2021/12/04 05:44:05;;;;;;;108.40;32.45;;;6.30;99.90;;;;;;5028633;28;20094;-73
2021/12/04 05:46:38;;;;;;;107.28;32.75;;;6.30;99.90;;;;;;5029553;28;20034;-74
2021/12/04 05:49:19;;;;;;;114.22;34.05;;;6.30;99.90;;;;;;5029563;28;20116;-72
2021/12/04 05:54:44;;;;;;;108.30;31.58;;;6.20;99.90;;;;;;5029250;28;20035;-73
2021/12/04 05:57:11;;;;;;;116.55;33.78;;;6.20;99.90;;;;;;5029079;28;20548;-73
2021/12/04 05:59:37;;;;;;;112.35;33.55;;;6.20;99.90;;;;;;5114322;27;20028;-73
2021/12/04 06:02:03;;;;;;;113.10;33.03;;;6.20;99.90;;;;;;5029062;28;20637;-73
2021/12/04 06:04:29;;;;;;;112.70;32.17;;;6.20;99.90;;;;;;5027719;28;20101;-73
2021/12/04 06:06:54;;;;;;;124.55;32.45;;;6.20;99.90;;;;;;5028905;28;20494;-73
2021/12/04 06:09:20;;;;;;;118.50;31.95;;;6.20;99.90;;;;;;5029029;28;20057;-73
2021/12/04 06:11:46;;;;;;;113.72;31.92;;;6.20;99.90;;;;;;5028917;28;20028;-73
2021/12/04 06:14:12;;;;;;;110.32;32.47;;;6.20;99.90;;;;;;5028955;28;20677;-73
2021/12/04 06:16:38;;;;;;;120.05;31.08;;;6.20;99.90;;;;;;5028692;28;20065;-73
2021/12/04 06:19:26;;;;;;;107.68;30.52;;;6.20;99.90;;;;;;5028969;28;20113;-73
2021/12/04 06:24:35;;;;;;;109.00;29.52;;;6.20;99.90;;;;;;5028516;28;20064;-74
2021/12/04 06:27:01;;;;;;;93.80;26.55;;;6.20;99.90;;;;;;5028551;28;20021;-74
2021/12/04 06:29:27;;;;;;;93.90;26.73;;;6.20;99.90;;;;;;5037726;28;20032;-74
2021/12/04 06:31:53;;;;;;;95.85;25.50;;;6.20;99.90;;;;;;5048369;27;20025;-74
2021/12/04 06:34:18;;;;;;;96.10;25.48;;;6.20;99.90;;;;;;5048479;28;20032;-74
2021/12/04 06:36:44;;;;;;;80.22;25.00;;;6.20;99.90;;;;;;5040287;27;20055;-73
2021/12/04 06:39:10;;;;;;;82.63;24.52;;;6.20;99.90;;;;;;5047900;28;20039;-74
2021/12/04 06:41:36;;;;;;;68.07;21.15;;;6.10;99.90;;;;;;5048358;28;20419;-74
2021/12/04 06:44:02;;;;;;;67.60;21.50;;;6.10;99.90;;;;;;5042010;28;20104;-74
2021/12/04 06:46:29;;;;;;;63.05;19.48;;;6.10;99.90;;;;;;5033876;28;20108;-73
2021/12/04 06:51:42;;;;;;;54.92;20.45;;;6.00;99.90;;;;;;5038866;28;20032;-73
2021/12/04 06:54:16;;;;;;;51.28;19.35;;;6.00;99.90;;;;;;5046203;28;20474;-74
2021/12/04 06:56:43;;;;;;;47.30;18.98;;;6.00;99.90;;;;;;5050102;28;20017;-74
2021/12/04 06:59:12;;;;;;;54.65;20.27;;;6.00;99.90;;;;;;5067076;27;20033;-74
2021/12/04 07:01:39;;;;;;;47.63;20.08;;;6.00;99.90;;;;;;5051885;28;20013;-74
2021/12/04 07:04:06;;;;;;;52.17;19.92;;;6.00;99.90;;;;;;5051511;28;20036;-74
2021/12/04 07:06:32;;;;;;;51.03;19.80;;;6.00;99.90;;;;;;5051583;28;20017;-73
2021/12/04 07:08:59;;;;;;;58.40;21.80;;;6.00;99.90;;;;;;5051478;28;20033;-76
2021/12/04 07:11:26;;;;;;;52.85;21.20;;;6.00;99.90;;;;;;5051559;28;20455;-73
2021/12/04 07:13:51;;;;;;;64.05;22.77;;;6.00;99.90;;;;;;5051322;28;20025;-73
2021/12/04 07:16:19;;;;;;;73.57;24.88;;;6.00;99.90;;;;;;5051445;27;20029;-73
2021/12/04 07:18:45;;;;;;;85.80;26.52;;;6.00;99.90;;;;;;5051446;28;20347;-73
2021/12/04 07:21:11;;;;;;;93.75;29.13;;;6.00;99.90;;;;;;5051303;27;20032;-73
2021/12/04 07:23:38;;;;;;;110.13;31.40;;;6.00;99.90;;;;;;5051025;27;20060;-73
2021/12/04 07:26:04;;;;;;;128.15;32.47;;;6.00;99.90;;;;;;5050056;28;20029;-75
2021/12/04 07:28:30;;;;;;;106.57;31.23;;;6.00;99.90;;;;;;5051588;28;20018;-74
2021/12/04 07:30:56;;;;;;;113.53;30.15;;;6.00;99.90;;;;;;5051310;28;20420;-73
2021/12/04 07:33:22;;;;;;;120.38;30.20;;;6.00;99.90;;;;;;5045934;28;20681;-73
2021/12/04 07:35:49;;;;;;;113.45;31.17;;;6.00;99.90;;;;;;5033517;27;20054;-74
2021/12/04 07:38:14;;;;;;;122.45;32.55;;;5.90;99.90;;;;;;5037841;28;20025;-74
2021/12/04 07:40:43;;;;;;;110.78;30.02;;;5.90;99.90;;;;;;5038137;28;20025;-74
2021/12/04 07:43:09;;;;;;;96.60;27.40;;;5.90;99.90;;;;;;5032465;28;20509;-74
2021/12/04 07:45:34;;;;;;;82.05;24.88;;;5.90;99.90;;;;;;5045534;28;20028;-74
2021/12/04 07:48:00;;;;;;;73.47;23.02;;;5.90;99.90;;;;;;5036577;28;20031;-73
2021/12/04 07:50:26;;;;;;;72.47;21.45;;;5.80;99.90;;;;;;5064201;28;20021;-75
2021/12/04 07:52:52;;;;;;;53.72;17.92;;;5.80;99.90;;;;;;5050827;28;20024;-74
2021/12/04 07:55:18;;;;;;;41.45;15.70;;;5.80;99.90;;;;;;5035713;28;20026;-74
2021/12/04 07:57:43;;;;;;;37.97;15.45;;;5.80;99.90;;;;;;5039195;28;20067;-73
2021/12/04 08:00:13;;;;;;;37.00;14.40;;;5.80;99.90;;;;;;5037235;28;20033;-73
2021/12/04 08:02:40;;;;;;;43.90;16.15;;;5.70;99.90;;;;;;5048585;28;20028;-73
2021/12/04 08:05:07;;;;;;;47.78;15.63;;;5.70;99.90;;;;;;5028799;28;20029;-73
2021/12/04 08:07:32;;;;;;;50.33;16.70;;;5.70;99.90;;;;;;5030866;28;20094;-74
2021/12/04 08:09:58;;;;;;;47.05;15.82;;;5.70;99.90;;;;;;5036431;28;20052;-74
2021/12/04 08:12:23;;;;;;;49.33;16.40;;;5.80;99.90;;;;;;5036697;28;20032;-74
2021/12/04 08:14:51;;;;;;;61.15;16.98;;;5.80;99.90;;;;;;5031002;28;20116;-74
2021/12/04 08:17:16;;;;;;;58.50;18.25;;;5.80;99.90;;;;;;5028001;28;20070;-74
2021/12/04 08:19:42;;;;;;;55.75;18.35;;;5.80;99.90;;;;;;5027743;28;20404;-74
2021/12/04 08:22:08;;;;;;;57.53;18.05;;;5.80;99.90;;;;;;5028607;28;20134;-73
2021/12/04 08:24:33;;;;;;;60.38;18.60;;;5.90;99.90;;;;;;5027592;28;20577;-74
2021/12/04 08:26:59;;;;;;;60.67;20.15;;;5.90;99.90;;;;;;5027784;28;20049;-73
2021/12/04 08:29:25;;;;;;;67.32;19.38;;;5.90;99.90;;;;;;5027831;28;20017;-73
2021/12/04 08:31:50;;;;;;;62.05;19.77;;;5.90;99.90;;;;;;5027482;28;20539;-73
2021/12/04 08:34:16;;;;;;;64.18;20.25;;;5.90;99.90;;;;;;5028683;28;20043;-74
2021/12/04 08:36:42;;;;;;;64.82;21.58;;;5.80;99.90;;;;;;5030198;28;20025;-75
2021/12/04 08:39:09;;;;;;;73.30;21.23;;;5.80;99.90;;;;;;5027907;27;20047;-75
2021/12/04 08:41:35;;;;;;;66.22;21.95;;;5.80;99.90;;;;;;5027683;28;20025;-74
2021/12/04 08:44:01;;;;;;;67.05;22.52;;;5.80;99.90;;;;;;5027151;28;20073;-73
2021/12/04 08:46:27;;;;;;;75.28;22.65;;;5.80;99.90;;;;;;5027432;28;20024;-73
2021/12/04 08:48:56;;;;;;;68.57;23.30;;;5.80;99.90;;;;;;5029308;27;20032;-76
2021/12/04 08:51:23;;;;;;;72.93;24.25;;;5.80;99.90;;;;;;5028974;28;20106;-73
2021/12/04 08:53:50;;;;;;;72.78;23.35;;;5.90;99.90;;;;;;5039785;28;20569;-74
2021/12/04 08:56:16;;;;;;;77.28;22.13;;;5.80;99.90;;;;;;5037159;28;20014;-74
2021/12/04 08:58:42;;;;;;;76.60;24.25;;;5.90;99.90;;;;;;5033862;28;20028;-74
2021/12/04 09:01:12;;;;;;;68.38;23.23;;;5.90;99.90;;;;;;5035284;28;20013;-74
2021/12/04 09:03:42;;;;;;;79.65;24.35;;;5.90;99.90;;;;;;5034165;28;20461;-74
2021/12/04 09:06:08;;;;;;;75.22;24.20;;;6.00;99.90;;;;;;5035265;28;20060;-74
2021/12/04 09:08:34;;;;;;;72.00;22.50;;;6.00;99.90;;;;;;5035526;28;20466;-74
2021/12/04 09:11:05;;;;;;;70.30;24.50;;;6.00;99.90;;;;;;5031350;28;20393;-74
2021/12/04 09:13:32;;;;;;;75.28;24.80;;;6.00;99.90;;;;;;5035246;28;20029;-74
2021/12/04 09:15:59;;;;;;;92.65;27.13;;;6.00;99.90;;;;;;5031344;28;20028;-74
2021/12/04 09:18:25;;;;;;;89.63;25.83;;;6.00;99.90;;;;;;5035856;28;20045;-75
2021/12/04 09:20:54;;;;;;;80.55;25.05;;;6.00;99.90;;;;;;5029279;28;20074;-74
2021/12/04 09:23:20;;;;;;;77.25;25.80;;;6.10;99.90;;;;;;5040429;28;20068;-74
2021/12/04 09:25:55;;;;;;;84.90;25.58;;;6.10;99.90;;;;;;5029916;28;20049;-74
2021/12/04 09:28:27;;;;;;;85.32;26.70;;;6.10;99.90;;;;;;5033986;28;20067;-74
2021/12/04 09:34:03;;;;;;;84.05;27.63;;;6.20;99.90;;;;;;5039213;28;20035;-75
2021/12/04 10:03:57;;;;;;;97.07;29.27;;;6.40;99.90;;;;;;5047619;28;20032;-73
2021/12/04 10:11:23;;;;;;;107.25;31.65;;;6.40;99.90;;;;;;5047735;28;20029;-74
2021/12/04 10:12:39;;;;;;;101.90;30.50;;;6.50;99.90;;;;;;5047142;28;20021;-74
2021/12/04 10:34:32;;;;;;;82.45;26.85;;;6.60;99.90;;;;;;5009882;28;20044;-74
2021/12/04 10:37:09;;;;;;;97.22;27.17;;;6.60;99.90;;;;;;5009756;28;20047;-74
2021/12/04 10:39:35;;;;;;;99.97;31.70;;;6.60;99.90;;;;;;5009622;28;20568;-74
2021/12/04 10:42:06;;;;;;;95.25;29.55;;;6.60;99.90;;;;;;4992595;28;20571;-74
2021/12/04 10:44:38;;;;;;;102.55;29.48;;;6.60;99.90;;;;;;5009617;28;20045;-75
2021/12/04 10:47:10;;;;;;;103.72;30.42;;;6.60;99.90;;;;;;5009758;28;20073;-77
2021/12/04 10:49:50;;;;;;;99.32;30.33;;;6.50;99.90;;;;;;5009300;28;20095;-80
2021/12/04 10:52:24;;;;;;;106.57;30.67;;;6.50;99.90;;;;;;5014492;28;20113;-76
2021/12/04 10:54:53;;;;;;;108.45;31.17;;;6.50;99.90;;;;;;5014197;28;20092;-77
2021/12/04 11:00:21;;;;;;;115.40;32.63;;;6.50;99.90;;;;;;5030190;28;20102;-77
2021/12/04 11:03:01;;;;;;;122.75;31.80;;;6.50;99.90;;;;;;5031631;28;20050;-75
2021/12/04 11:06:16;;;;;;;128.52;32.63;;;6.50;99.90;;;;;;5030493;28;20026;-76
2021/12/04 11:22:50;;;;;;;122.20;29.52;;;6.60;99.90;;;;;;5030001;28;20040;-76
2021/12/04 11:46:46;;;;;;;118.43;33.30;;;6.70;99.90;;;;;;5036456;28;20118;-77
2021/12/04 11:49:11;;;;;;;133.25;37.50;;;6.70;99.90;;;;;;5053028;27;20162;-76
2021/12/04 11:51:55;;;;;;;113.03;32.28;;;6.70;99.90;;;;;;5036357;28;20074;-75
2021/12/04 11:54:21;;;;;;;118.10;32.08;;;6.70;99.90;;;;;;5036113;28;20017;-75
2021/12/04 11:57:07;;;;;;;120.78;32.40;;;6.70;99.90;;;;;;5034534;28;20125;-75
2021/12/04 11:59:36;;;;;;;130.10;33.20;;;6.70;99.90;;;;;;5034632;27;20078;-76
2021/12/04 12:02:06;;;;;;;122.75;33.80;;;6.60;99.90;;;;;;5036210;28;20021;-76
2021/12/04 12:04:45;;;;;;;109.88;31.45;;;6.60;99.90;;;;;;5033164;28;20022;-76
2021/12/04 12:07:16;;;;;;;116.47;31.67;;;6.60;99.90;;;;;;5036647;28;20048;-76
2021/12/04 12:09:42;;;;;;;111.65;33.13;;;6.50;99.90;;;;;;5039028;28;20014;-76
2021/12/04 12:12:12;;;;;;;112.47;31.70;;;6.60;99.90;;;;;;5037181;28;20022;-76
2021/12/04 12:14:58;;;;;;;103.45;29.95;;;6.60;99.90;;;;;;5034828;28;20028;-76
2021/12/04 12:17:33;;;;;;;71.75;22.45;;;6.70;99.90;;;;;;5039688;28;20481;-76
2021/12/04 12:19:59;;;;;;;67.40;20.50;;;6.60;99.90;;;;;;5038010;28;20430;-76
2021/12/04 12:22:37;;;;;;;79.65;22.08;;;6.70;99.90;;;;;;5040417;28;20013;-76
2021/12/04 12:34:09;;;;;;;46.55;15.90;;;6.70;99.90;;;;;;5043352;27;20104;-76
2021/12/04 12:36:35;;;;;;;43.88;14.88;;;6.80;99.90;;;;;;5049954;28;20037;-75
2021/12/04 12:39:11;;;;;;;36.80;14.60;;;6.80;99.90;;;;;;5054287;27;20021;-75
2021/12/04 12:41:42;;;;;;;41.45;14.23;;;6.80;99.90;;;;;;5054687;28;20032;-76
2021/12/04 12:44:24;;;;;;;39.38;15.05;;;6.90;99.90;;;;;;5069524;27;20076;-75
2021/12/04 12:47:04;;;;;;;37.22;15.32;;;6.90;99.90;;;;;;5053584;27;20028;-75
2021/12/04 12:49:37;;;;;;;35.17;14.48;;;6.90;99.90;;;;;;5050241;28;20025;-75
2021/12/04 12:52:24;;;;;;;38.45;15.05;;;6.90;99.90;;;;;;5047228;28;20037;-74
2021/12/04 12:54:56;;;;;;;40.05;15.85;;;6.90;99.90;;;;;;5049354;28;20045;-74
2021/12/04 12:57:31;;;;;;;36.47;14.52;;;6.90;99.90;;;;;;5053633;28;20036;-74
2021/12/04 13:14:21;;;;;;;7.25;2.10;;;6.90;99.90;;;;;;5053098;28;20033;-75
2021/12/04 13:17:00;;;;;;;10.30;1.67;;;6.90;99.90;;;;;;5053100;28;20021;-76
2021/12/04 13:19:31;;;;;;;11.85;1.42;;;6.90;99.90;;;;;;5053336;28;20021;-75
2021/12/04 13:22:00;;;;;;;3.60;1.25;;;6.80;99.90;;;;;;5053431;28;20315;-76
2021/12/04 13:24:28;;;;;;;8.07;1.30;;;6.80;99.90;;;;;;5051553;28;20048;-76
2021/12/04 13:26:56;;;;;;;4.53;0.90;;;6.80;99.90;;;;;;5053791;28;20489;-76
2021/12/04 13:29:25;;;;;;;6.47;1.10;;;6.80;99.90;;;;;;5054371;28;20473;-75
2021/12/04 13:31:56;;;;;;;3.13;0.80;;;6.80;99.90;;;;;;5053269;28;20029;-76
2021/12/04 13:34:28;;;;;;;8.45;1.17;;;6.80;99.90;;;;;;5053317;28;20024;-76
2021/12/04 13:36:54;;;;;;;7.18;1.00;;;6.80;99.90;;;;;;5053056;28;20025;-76
2021/12/04 13:39:21;;;;;;;5.35;1.00;;;6.80;99.90;;;;;;5051709;28;20032;-77
2021/12/04 13:41:48;;;;;;;5.00;1.13;;;6.80;99.90;;;;;;5059918;27;20096;-76
2021/12/04 13:44:20;;;;;;;3.70;1.08;;;6.80;99.90;;;;;;5110014;27;20040;-77
2021/12/04 13:46:51;;;;;;;5.20;1.35;;;6.80;99.90;;;;;;5136033;27;20031;-76
2021/12/04 13:49:20;;;;;;;5.63;1.08;;;6.80;99.90;;;;;;5137349;27;20095;-76
2021/12/04 13:51:55;;;;;;;5.38;1.55;;;6.80;99.90;;;;;;5136271;27;20051;-75
2021/12/04 13:54:23;;;;;;;5.90;1.33;;;6.80;99.90;;;;;;5136609;27;20029;-76
2021/12/04 13:56:49;;;;;;;3.58;0.82;;;6.80;99.90;;;;;;5136321;27;20031;-76
2021/12/04 13:59:14;;;;;;;4.03;0.80;;;6.80;99.90;;;;;;5134842;27;20050;-74
2021/12/04 14:02:00;;;;;;;5.60;1.30;;;6.80;99.90;;;;;;5107060;27;20134;-76
2021/12/04 14:04:25;;;;;;;4.80;1.40;;;6.80;99.90;;;;;;5036164;28;20033;-76
2021/12/04 14:06:57;;;;;;;5.22;1.05;;;6.80;99.90;;;;;;5030625;28;20394;-76
2021/12/04 14:09:30;;;;;;;5.07;1.65;;;6.80;99.90;;;;;;5032827;28;20021;-76
2021/12/04 14:11:56;;;;;;;6.07;1.60;;;6.90;99.90;;;;;;5038232;28;20536;-77
2021/12/04 14:14:24;;;;;;;8.30;1.70;;;6.90;99.90;;;;;;5031209;28;20435;-76
2021/12/04 14:16:52;;;;;;;3.50;1.35;;;6.90;99.90;;;;;;5034978;28;20028;-76
2021/12/04 14:19:22;;;;;;;4.75;1.50;;;6.90;99.90;;;;;;5041883;28;20470;-76
2021/12/04 14:22:00;;;;;;;7.65;1.90;;;6.90;99.90;;;;;;5043162;28;20018;-75
2021/12/04 14:24:42;;;;;;;10.80;1.70;;;6.90;99.90;;;;;;5049064;27;20057;-76
2021/12/04 14:27:11;;;;;;;7.55;1.80;;;6.90;99.90;;;;;;5031602;28;20053;-75
2021/12/04 14:29:41;;;;;;;8.30;1.92;;;6.90;99.90;;;;;;5038996;28;20029;-76
2021/12/04 14:32:09;;;;;;;12.15;2.33;;;6.90;99.90;;;;;;5032225;28;20051;-76
2021/12/04 14:34:36;;;;;;;9.02;2.28;;;6.90;99.90;;;;;;5050889;28;20381;-76
2021/12/04 14:37:12;;;;;;;12.00;2.50;;;6.90;99.90;;;;;;5050626;28;20090;-76
2021/12/04 14:39:46;;;;;;;12.77;2.83;;;6.90;99.90;;;;;;5041593;28;20017;-76
2021/12/04 14:42:19;;;;;;;10.05;2.65;;;7.00;99.90;;;;;;5031719;27;20033;-76
2021/12/04 14:45:20;;;;;;;12.10;2.95;;;7.00;99.90;;;;;;5048234;28;20494;-76
2021/12/04 14:48:08;;;;;;;12.95;2.90;;;7.00;99.90;;;;;;5047047;28;20033;-76
2021/12/04 14:50:38;;;;;;;17.50;2.67;;;7.10;99.90;;;;;;5044169;28;20026;-76
2021/12/04 14:53:07;;;;;;;16.75;3.28;;;7.10;99.90;;;;;;5034330;28;20037;-76
2021/12/04 14:55:39;;;;;;;22.52;2.78;;;7.20;99.90;;;;;;5031512;28;20018;-76
2021/12/04 14:58:11;;;;;;;18.15;2.78;;;7.30;99.90;;;;;;5035449;28;20018;-76
2021/12/04 15:01:00;;;;;;;16.73;2.83;;;7.30;99.90;;;;;;5035680;28;20021;-76
2021/12/04 15:03:56;;;;;;;19.30;2.80;;;7.40;99.90;;;;;;5043656;28;20029;-76
2021/12/04 15:06:25;;;;;;;19.08;2.92;;;7.40;99.90;;;;;;5044038;28;20210;-76
2021/12/04 15:09:02;;;;;;;17.45;2.85;;;7.40;99.90;;;;;;5030049;28;20017;-76
2021/12/04 15:11:32;;;;;;;11.55;2.70;;;7.50;99.90;;;;;;5026344;28;20060;-75
2021/12/04 15:14:08;;;;;;;14.70;2.50;;;7.40;99.90;;;;;;5037113;28;20536;-76
2021/12/04 15:16:38;;;;;;;21.27;2.88;;;7.40;99.90;;;;;;5042871;28;20025;-76
2021/12/04 15:19:25;;;;;;;17.50;2.70;;;7.40;99.90;;;;;;5044566;28;20024;-75
2021/12/04 15:21:59;;;;;;;10.75;2.17;;;7.40;99.90;;;;;;5044876;28;20021;-76
2021/12/04 15:24:32;;;;;;;19.88;3.20;;;7.40;99.90;;;;;;5050667;28;20469;-76
2021/12/04 15:27:09;;;;;;;13.43;2.00;;;7.30;99.90;;;;;;5042868;27;20029;-75
2021/12/04 15:29:36;;;;;;;11.07;2.47;;;7.30;99.90;;;;;;5044408;28;20021;-76
2021/12/04 15:32:09;;;;;;;14.40;2.53;;;7.30;99.90;;;;;;5041707;28;20024;-77
2021/12/04 15:34:40;;;;;;;15.32;2.40;;;7.30;99.90;;;;;;5044644;28;20025;-74
2021/12/04 15:37:06;;;;;;;16.27;2.10;;;7.20;99.90;;;;;;5035414;28;20055;-76
2021/12/04 15:39:46;;;;;;;15.07;2.25;;;7.20;99.90;;;;;;5033115;28;20651;-77
2021/12/04 15:52:59;;;;;;;12.88;2.25;;;7.00;99.90;;;;;;5068702;28;20102;-77
2021/12/04 15:55:32;;;;;;;12.50;1.95;;;7.00;99.90;;;;;;5068899;28;20051;-76
2021/12/04 15:58:00;;;;;;;17.65;2.53;;;6.90;99.90;;;;;;5072079;28;20775;-76